createdAt,value
2018-05-21T00:00:46.520Z,945.09
2018-05-21T00:01:46.533Z,945.04
2018-05-21T00:02:46.491Z,945.04
2018-05-21T00:03:46.481Z,945.04
2018-05-21T00:04:46.488Z,945.04
2018-05-21T00:05:46.471Z,945.04
2018-05-21T00:06:46.459Z,944.97
2018-05-21T00:07:46.472Z,944.98
2018-05-21T00:08:46.482Z,944.98
2018-05-21T00:09:46.480Z,944.97
2018-05-21T00:10:46.433Z,944.94
2018-05-21T00:11:46.447Z,944.97
2018-05-21T00:12:46.417Z,944.96
2018-05-21T00:13:46.413Z,944.98
2018-05-21T00:14:46.407Z,944.98
2018-05-21T00:15:46.427Z,944.96
2018-05-21T00:16:46.466Z,944.94
2018-05-21T00:17:46.392Z,944.93
2018-05-21T00:18:46.386Z,944.96
2018-05-21T00:19:46.381Z,944.98
2018-05-21T00:20:46.376Z,944.96
2018-05-21T00:21:46.429Z,945.00
2018-05-21T00:22:46.428Z,945.01
2018-05-21T00:23:46.372Z,944.96
2018-05-21T00:24:46.376Z,945.01
2018-05-21T00:25:46.388Z,944.96
2018-05-21T00:26:46.393Z,944.98
2018-05-21T00:27:46.400Z,945.01
2018-05-21T00:28:46.407Z,945.01
2018-05-21T00:29:46.416Z,945.06
2018-05-21T00:30:46.364Z,945.07
2018-05-21T00:31:46.434Z,945.07
2018-05-21T00:32:46.433Z,945.10
2018-05-21T00:33:46.399Z,945.08
2018-05-21T00:34:46.443Z,945.08
2018-05-21T00:35:46.352Z,945.03
2018-05-21T00:36:46.364Z,945.04
2018-05-21T00:37:46.303Z,945.00
2018-05-21T00:38:46.301Z,944.99
2018-05-21T00:39:46.316Z,945.02
2018-05-21T00:40:46.276Z,945.00
2018-05-21T00:41:46.289Z,945.05
2018-05-21T00:42:46.293Z,945.01
2018-05-21T00:43:46.279Z,945.04
2018-05-21T00:44:46.437Z,945.04
2018-05-21T00:45:46.283Z,945.00
2018-05-21T00:46:46.287Z,944.98
2018-05-21T00:47:46.280Z,944.94
2018-05-21T00:48:46.288Z,944.93
2018-05-21T00:49:46.225Z,944.90
2018-05-21T00:50:46.240Z,944.91
2018-05-21T00:51:46.247Z,944.88
2018-05-21T00:52:46.254Z,944.88
2018-05-21T00:53:46.222Z,944.92
2018-05-21T00:54:46.239Z,944.92
2018-05-21T00:55:46.236Z,944.92
2018-05-21T00:56:46.216Z,944.95
2018-05-21T00:57:46.222Z,944.92
2018-05-21T00:58:46.190Z,944.90
2018-05-21T00:59:46.199Z,944.86
2018-05-21T01:00:47.140Z,944.89
2018-05-21T01:01:46.223Z,944.85
2018-05-21T01:02:46.163Z,944.88
2018-05-21T01:03:46.170Z,944.88
2018-05-21T01:04:46.173Z,944.87
2018-05-21T01:05:46.163Z,944.84
2018-05-21T01:06:46.169Z,944.83
2018-05-21T01:07:46.167Z,944.80
2018-05-21T01:08:46.164Z,944.81
2018-05-21T01:09:46.165Z,944.82
2018-05-21T01:10:46.171Z,944.77
2018-05-21T01:11:46.112Z,944.79
2018-05-21T01:12:46.141Z,944.77
2018-05-21T01:13:46.172Z,944.83
2018-05-21T01:14:46.104Z,944.80
2018-05-21T01:15:46.185Z,944.78
2018-05-21T01:16:46.104Z,944.79
2018-05-21T01:17:46.113Z,944.79
2018-05-21T01:18:46.075Z,944.72
2018-05-21T01:19:46.090Z,944.73
2018-05-21T01:20:46.089Z,944.69
2018-05-21T01:21:46.084Z,944.71
2018-05-21T01:22:46.089Z,944.74
2018-05-21T01:23:46.048Z,944.69
2018-05-21T01:24:46.032Z,944.68
2018-05-21T01:25:46.025Z,944.67
2018-05-21T01:26:46.071Z,944.65
2018-05-21T01:27:46.007Z,944.66
2018-05-21T01:28:46.028Z,944.70
2018-05-21T01:29:46.005Z,944.67
2018-05-21T02:03:57.471Z,944.72
2018-05-21T02:04:57.441Z,944.73
2018-05-21T02:05:57.429Z,944.73
2018-05-21T02:06:57.419Z,944.69
2018-05-21T02:07:57.407Z,944.76
2018-05-21T02:08:57.393Z,944.72
2018-05-21T02:09:57.453Z,944.73
2018-05-21T02:10:57.381Z,944.74
2018-05-21T02:11:57.364Z,944.70
2018-05-21T02:12:57.362Z,944.72
2018-05-21T02:13:57.348Z,944.77
2018-05-21T02:14:57.359Z,944.76
2018-05-21T02:15:57.332Z,944.76
2018-05-21T02:16:57.329Z,944.81
2018-05-21T02:17:57.324Z,944.78
2018-05-21T02:18:57.312Z,944.75
2018-05-21T02:19:57.389Z,944.76
2018-05-21T02:20:57.297Z,944.76
2018-05-21T02:21:57.303Z,944.75
2018-05-21T02:22:57.281Z,944.75
2018-05-21T02:23:57.290Z,944.80
2018-05-21T02:24:57.267Z,944.78
2018-05-21T02:25:57.266Z,944.81
2018-05-21T02:26:57.303Z,944.86
2018-05-21T02:27:57.248Z,944.86
2018-05-21T02:28:57.254Z,944.82
2018-05-21T02:29:57.270Z,944.83
2018-05-21T02:30:57.236Z,944.86
2018-05-21T02:31:57.225Z,944.83
2018-05-21T02:32:57.254Z,944.80
2018-05-21T02:33:57.227Z,944.79
2018-05-21T02:34:57.215Z,944.76
2018-05-21T02:35:57.202Z,944.81
2018-05-21T02:36:57.241Z,944.83
2018-05-21T02:37:57.210Z,944.83
2018-05-21T02:38:57.265Z,944.83
2018-05-21T02:39:57.188Z,944.84
2018-05-21T02:40:57.215Z,944.86
2018-05-21T02:41:57.169Z,944.84
2018-05-21T02:42:57.794Z,944.83
2018-05-21T02:43:57.169Z,944.84
2018-05-21T02:44:57.192Z,944.84
2018-05-21T02:45:57.153Z,944.85
2018-05-21T02:46:57.226Z,944.86
2018-05-21T02:47:57.128Z,944.84
2018-05-21T02:48:57.147Z,944.80
2018-05-21T02:49:57.206Z,944.83
2018-05-21T02:50:57.133Z,944.80
2018-05-21T02:51:57.110Z,944.80
2018-05-21T02:52:57.105Z,944.80
2018-05-21T02:53:57.121Z,944.75
2018-05-21T02:54:57.094Z,944.86
2018-05-21T02:55:57.092Z,944.83
2018-05-21T02:56:57.149Z,944.85
2018-05-21T02:57:57.074Z,944.77
2018-05-21T02:58:57.071Z,944.78
2018-05-21T02:59:57.072Z,944.74
2018-05-21T03:00:57.063Z,944.78
2018-05-21T03:01:57.054Z,944.76
2018-05-21T03:02:57.078Z,944.77
2018-05-21T03:03:57.035Z,944.76
2018-05-21T03:04:57.037Z,944.76
2018-05-21T03:05:57.039Z,944.76
2018-05-21T03:06:57.035Z,944.80
2018-05-21T03:07:57.019Z,944.79
2018-05-21T03:08:57.014Z,944.82
2018-05-21T03:09:57.011Z,944.80
2018-05-21T03:10:57.004Z,944.80
2018-05-21T03:11:56.998Z,944.81
2018-05-21T03:12:57.010Z,944.78
2018-05-21T03:13:57.006Z,944.82
2018-05-21T03:14:56.996Z,944.81
2018-05-21T03:15:56.973Z,944.77
2018-05-21T03:16:56.976Z,944.80
2018-05-21T03:17:56.954Z,944.82
2018-05-21T03:18:56.954Z,944.80
2018-05-21T03:19:56.949Z,944.82
2018-05-21T03:20:56.944Z,944.79
2018-05-21T03:21:56.944Z,944.84
2018-05-21T03:22:56.935Z,944.87
2018-05-21T03:23:56.952Z,944.89
2018-05-21T03:24:56.916Z,944.85
2018-05-21T03:25:56.916Z,944.83
2018-05-21T03:26:56.913Z,944.76
2018-05-21T03:27:56.909Z,944.76
2018-05-21T03:28:56.899Z,944.80
2018-05-21T03:29:56.901Z,944.77
2018-05-21T03:30:56.892Z,944.84
2018-05-21T03:31:56.881Z,944.84
2018-05-21T03:32:56.875Z,944.81
2018-05-21T03:33:56.875Z,944.85
2018-05-21T03:34:56.869Z,944.86
2018-05-21T03:35:56.850Z,944.85
2018-05-21T03:36:56.851Z,944.85
2018-05-21T03:37:56.847Z,944.88
2018-05-21T03:38:56.855Z,944.94
2018-05-21T03:39:56.834Z,944.91
2018-05-21T03:40:56.822Z,944.95
2018-05-21T03:41:56.821Z,944.92
2018-05-21T03:42:56.828Z,944.93
2018-05-21T03:43:56.803Z,944.91
2018-05-21T03:44:56.805Z,944.91
2018-05-21T03:45:56.815Z,944.90
2018-05-21T03:46:56.805Z,944.91
2018-05-21T03:47:56.784Z,944.88
2018-05-21T03:48:56.780Z,944.88
2018-05-21T03:49:56.772Z,944.86
2018-05-21T03:50:56.776Z,944.85
2018-05-21T03:51:56.757Z,944.85
2018-05-21T03:52:56.754Z,944.86
2018-05-21T03:53:56.765Z,944.91
2018-05-21T03:54:56.764Z,944.89
2018-05-21T03:55:56.738Z,944.90
2018-05-21T03:56:56.787Z,944.90
2018-05-21T03:57:56.729Z,944.95
2018-05-21T03:58:56.722Z,944.99
2018-05-21T03:59:56.715Z,945.01
2018-05-21T04:00:56.720Z,945.03
2018-05-21T04:01:56.704Z,945.01
2018-05-21T04:02:56.711Z,945.05
2018-05-21T04:03:56.691Z,945.00
2018-05-21T04:04:56.685Z,945.06
2018-05-21T04:05:56.682Z,945.01
2018-05-21T04:06:56.673Z,945.01
2018-05-21T04:07:56.664Z,944.98
2018-05-21T04:08:56.664Z,944.96
2018-05-21T04:09:56.653Z,945.00
2018-05-21T04:10:56.674Z,944.98
2018-05-21T04:11:56.721Z,944.96
2018-05-21T04:12:56.648Z,944.96
2018-05-21T04:13:56.636Z,944.95
2018-05-21T04:14:56.639Z,944.98
2018-05-21T04:15:56.630Z,944.93
2018-05-21T04:16:56.634Z,944.93
2018-05-21T04:17:56.627Z,944.93
2018-05-21T04:18:56.616Z,944.96
2018-05-21T04:19:56.640Z,944.94
2018-05-21T04:20:56.599Z,944.99
2018-05-21T04:21:56.593Z,944.96
2018-05-21T04:22:56.595Z,945.01
2018-05-21T04:23:56.581Z,945.02
2018-05-21T04:24:56.579Z,945.02
2018-05-21T04:25:56.570Z,945.04
2018-05-21T04:26:56.572Z,945.07
2018-05-21T04:27:56.586Z,945.07
2018-05-21T04:28:56.553Z,945.07
2018-05-21T04:29:56.560Z,945.06
2018-05-21T04:30:56.545Z,945.08
2018-05-21T04:31:56.560Z,945.05
2018-05-21T04:32:56.531Z,945.07
2018-05-21T04:33:56.534Z,945.03
2018-05-21T04:34:56.521Z,945.03
2018-05-21T04:35:56.530Z,945.06
2018-05-21T04:36:56.517Z,945.04
2018-05-21T04:37:56.525Z,945.02
2018-05-21T04:38:56.505Z,945.03
2018-05-21T04:39:56.498Z,945.08
2018-05-21T04:40:56.512Z,945.07
2018-05-21T04:41:56.487Z,945.04
2018-05-21T04:42:56.492Z,945.04
2018-05-21T04:43:56.478Z,945.05
2018-05-21T04:44:56.479Z,945.06
2018-05-21T04:45:56.472Z,945.06
2018-05-21T04:46:56.474Z,945.11
2018-05-21T04:47:56.465Z,945.14
2018-05-21T04:48:56.456Z,945.10
2018-05-21T04:49:56.449Z,945.10
2018-05-21T04:50:56.448Z,945.05
2018-05-21T04:51:56.437Z,945.07
2018-05-21T04:52:56.441Z,945.05
2018-05-21T04:53:56.437Z,945.08
2018-05-21T04:54:56.428Z,945.12
2018-05-21T04:55:56.423Z,945.10
2018-05-21T04:56:56.417Z,945.11
2018-05-21T04:57:56.410Z,945.12
2018-05-21T04:58:56.485Z,945.09
2018-05-21T04:59:56.409Z,945.13
2018-05-21T05:00:56.400Z,945.12
2018-05-21T05:01:56.399Z,945.14
2018-05-21T05:02:56.390Z,945.18
2018-05-21T05:03:56.925Z,945.20
2018-05-21T05:04:56.397Z,945.22
2018-05-21T05:05:56.385Z,945.18
2018-05-21T05:06:56.374Z,945.25
2018-05-21T05:07:56.370Z,945.24
2018-05-21T05:08:56.363Z,945.22
2018-05-21T05:09:56.363Z,945.19
2018-05-21T05:10:56.358Z,945.21
2018-05-21T05:11:56.386Z,945.18
2018-05-21T05:12:56.342Z,945.21
2018-05-21T05:13:56.348Z,945.19
2018-05-21T05:14:56.342Z,945.19
2018-05-21T05:15:56.324Z,945.22
2018-05-21T05:16:56.325Z,945.27
2018-05-21T05:17:56.332Z,945.28
2018-05-21T05:18:56.366Z,945.27
2018-05-21T05:19:56.317Z,945.29
2018-05-21T05:20:56.316Z,945.30
2018-05-21T05:21:56.310Z,945.29
2018-05-21T05:22:56.304Z,945.25
2018-05-21T05:23:56.303Z,945.23
2018-05-21T05:24:56.297Z,945.27
2018-05-21T05:25:56.302Z,945.23
2018-05-21T05:26:56.298Z,945.23
2018-05-21T05:27:56.298Z,945.23
2018-05-21T05:28:56.302Z,945.26
2018-05-21T05:29:56.281Z,945.22
2018-05-21T05:30:56.276Z,945.22
2018-05-21T05:31:56.262Z,945.21
2018-05-21T05:32:56.263Z,945.20
2018-05-21T05:33:56.260Z,945.18
2018-05-21T05:34:56.311Z,945.18
2018-05-21T05:35:56.252Z,945.18
2018-05-21T05:36:56.251Z,945.18
2018-05-21T05:37:56.250Z,945.15
2018-05-21T05:38:56.244Z,945.15
2018-05-21T05:39:56.241Z,945.14
2018-05-21T05:40:56.240Z,945.12
2018-05-21T05:41:56.238Z,945.11
2018-05-21T05:42:56.247Z,945.14
2018-05-21T05:43:56.224Z,945.17
2018-05-21T05:44:56.223Z,945.17
2018-05-21T05:45:56.257Z,945.13
2018-05-21T05:46:56.247Z,945.10
2018-05-21T05:47:56.211Z,945.16
2018-05-21T05:48:56.265Z,945.13
2018-05-21T05:49:56.203Z,945.11
2018-05-21T05:50:56.201Z,945.14
2018-05-21T05:51:56.198Z,945.19
2018-05-21T05:52:56.189Z,945.22
2018-05-21T05:53:56.189Z,945.18
2018-05-21T05:54:56.186Z,945.15
2018-05-21T05:55:56.184Z,945.17
2018-05-21T05:56:56.184Z,945.20
2018-05-21T05:57:56.213Z,945.19
2018-05-21T05:58:56.177Z,945.17
2018-05-21T05:59:56.185Z,945.19
2018-05-21T06:00:56.172Z,945.19
2018-05-21T06:01:56.168Z,945.15
2018-05-21T06:02:56.255Z,945.21
2018-05-21T06:03:56.154Z,945.21
2018-05-21T06:04:56.157Z,945.22
2018-05-21T06:05:56.165Z,945.22
2018-05-21T06:06:56.182Z,945.23
2018-05-21T06:07:56.157Z,945.23
2018-05-21T06:08:57.162Z,945.23
2018-05-21T06:09:56.146Z,945.27
2018-05-21T06:10:56.145Z,945.30
2018-05-21T06:11:56.161Z,945.27
2018-05-21T06:12:56.139Z,945.29
2018-05-21T06:13:56.139Z,945.28
2018-05-21T06:14:56.135Z,945.28
2018-05-21T06:15:56.140Z,945.31
2018-05-21T06:16:56.126Z,945.29
2018-05-21T06:17:56.123Z,945.29
2018-05-21T06:18:56.134Z,945.28
2018-05-21T06:19:56.137Z,945.27
2018-05-21T06:20:56.117Z,945.23
2018-05-21T06:21:56.912Z,945.21
2018-05-21T06:22:56.219Z,945.21
2018-05-21T06:23:56.113Z,945.20
2018-05-21T06:24:56.109Z,945.23
2018-05-21T06:25:56.108Z,945.21
2018-05-21T06:26:56.118Z,945.18
2018-05-21T06:27:56.090Z,945.19
2018-05-21T06:28:56.104Z,945.16
2018-05-21T06:29:56.095Z,945.17
2018-05-21T06:30:56.090Z,945.16
2018-05-21T06:31:56.084Z,945.18
2018-05-21T06:32:56.084Z,945.18
2018-05-21T06:33:56.100Z,945.16
2018-05-21T06:34:56.078Z,945.24
2018-05-21T06:35:56.073Z,945.25
2018-05-21T06:36:56.072Z,945.21
2018-05-21T06:37:56.062Z,945.27
2018-05-21T06:38:56.086Z,945.27
2018-05-21T06:39:56.069Z,945.27
2018-05-21T06:40:56.083Z,945.29
2018-05-21T06:41:56.054Z,945.28
2018-05-21T06:42:56.067Z,945.28
2018-05-21T06:43:56.060Z,945.29
2018-05-21T06:44:56.065Z,945.29
2018-05-21T06:45:56.061Z,945.29
2018-05-21T06:46:56.062Z,945.33
2018-05-21T06:47:56.050Z,945.28
2018-05-21T06:48:56.048Z,945.28
2018-05-21T06:49:56.052Z,945.28
2018-05-21T06:50:56.058Z,945.29
2018-05-21T06:51:56.045Z,945.30
2018-05-21T06:52:56.085Z,945.28
2018-05-21T06:53:56.084Z,945.29
2018-05-21T06:54:56.061Z,945.24
2018-05-21T06:55:56.052Z,945.22
2018-05-21T06:56:56.113Z,945.23
2018-05-21T06:57:56.050Z,945.22
2018-05-21T06:58:56.039Z,945.20
2018-05-21T06:59:56.043Z,945.21
2018-05-21T07:00:56.036Z,945.19
2018-05-21T07:01:56.037Z,945.19
2018-05-21T07:02:56.038Z,945.16
2018-05-21T07:03:56.035Z,945.22
2018-05-21T07:04:56.031Z,945.20
2018-05-21T07:05:56.030Z,945.22
2018-05-21T07:06:56.032Z,945.24
2018-05-21T07:07:56.121Z,945.32
2018-05-21T07:08:56.050Z,945.37
2018-05-21T07:09:56.052Z,945.29
2018-05-21T07:10:56.037Z,945.29
2018-05-21T07:11:56.040Z,945.33
2018-05-21T07:12:56.055Z,945.35
2018-05-21T07:13:56.058Z,945.33
2018-05-21T07:14:56.061Z,945.32
2018-05-21T07:15:56.060Z,945.37
2018-05-21T07:16:56.089Z,945.38
2018-05-21T07:17:56.071Z,945.37
2018-05-21T07:18:56.080Z,945.34
2018-05-21T07:19:56.083Z,945.35
2018-05-21T07:20:56.091Z,945.33
2018-05-21T07:21:56.104Z,945.33
2018-05-21T07:22:56.099Z,945.33
2018-05-21T07:23:56.118Z,945.33
2018-05-21T07:24:56.136Z,945.31
2018-05-21T07:25:56.141Z,945.33
2018-05-21T07:26:56.165Z,945.36
2018-05-21T07:27:56.157Z,945.33
2018-05-21T07:28:56.175Z,945.33
2018-05-21T07:29:56.192Z,945.36
2018-05-21T07:30:56.188Z,945.32
2018-05-21T07:31:56.216Z,945.33
2018-05-21T07:32:56.269Z,945.35
2018-05-21T07:33:56.254Z,945.37
2018-05-21T07:34:56.282Z,945.32
2018-05-21T07:35:56.239Z,945.32
2018-05-21T07:36:56.335Z,945.34
2018-05-21T07:37:56.270Z,945.35
2018-05-21T07:38:56.288Z,945.36
2018-05-21T07:39:56.293Z,945.35
2018-05-21T07:40:56.310Z,945.32
2018-05-21T07:41:56.325Z,945.33
2018-05-21T07:42:56.356Z,945.36
2018-05-21T07:43:56.356Z,945.34
2018-05-21T07:44:56.419Z,945.34
2018-05-21T07:45:56.377Z,945.36
2018-05-21T07:46:56.399Z,945.33
2018-05-21T07:47:56.405Z,945.37
2018-05-21T07:48:56.421Z,945.34
2018-05-21T07:49:56.441Z,945.29
2018-05-21T07:50:56.456Z,945.33
2018-05-21T07:51:56.465Z,945.28
2018-05-21T07:52:56.499Z,945.30
2018-05-21T07:53:56.619Z,945.31
2018-05-21T07:55:00.256Z,945.29
2018-05-21T07:55:56.866Z,945.29
2018-05-21T07:56:56.673Z,945.27
2018-05-21T07:57:56.741Z,945.28
2018-05-21T07:58:56.771Z,945.24
2018-05-21T07:59:56.752Z,945.23
2018-05-21T08:00:56.813Z,945.27
2018-05-21T08:01:56.771Z,945.26
2018-05-21T08:02:56.752Z,945.25
2018-05-21T08:03:56.849Z,945.24
2018-05-21T08:04:56.913Z,945.23
2018-05-21T08:05:56.780Z,945.24
2018-05-21T08:06:56.823Z,945.22
2018-05-21T08:07:56.909Z,945.30
2018-05-21T08:08:56.888Z,945.27
2018-05-21T08:09:56.904Z,945.27
2018-05-21T08:10:56.780Z,945.24
2018-05-21T08:11:56.982Z,945.23
2018-05-21T08:12:56.904Z,945.22
2018-05-21T08:13:56.894Z,945.20
2018-05-21T08:14:56.872Z,945.21
2018-05-21T08:15:56.878Z,945.18
2018-05-21T08:16:56.888Z,945.19
2018-05-21T08:17:56.925Z,945.18
2018-05-21T08:18:56.948Z,945.19
2018-05-21T08:19:56.942Z,945.15
2018-05-21T08:20:56.945Z,945.17
2018-05-21T08:21:56.972Z,945.19
2018-05-21T08:22:57.023Z,945.16
2018-05-21T08:23:56.999Z,945.16
2018-05-21T08:24:57.009Z,945.17
2018-05-21T08:25:57.049Z,945.11
2018-05-21T08:26:57.094Z,945.12
2018-05-21T08:27:57.057Z,945.09
2018-05-21T08:28:57.125Z,945.08
2018-05-21T08:29:57.087Z,945.07
2018-05-21T08:30:57.140Z,945.11
2018-05-21T08:31:57.133Z,945.10
2018-05-21T08:32:57.149Z,945.13
2018-05-21T08:33:57.179Z,945.11
2018-05-21T08:34:57.191Z,945.13
2018-05-21T08:35:57.207Z,945.19
2018-05-21T08:36:57.240Z,945.18
2018-05-21T08:37:57.232Z,945.18
2018-05-21T08:38:57.251Z,945.17
2018-05-21T08:39:57.271Z,945.18
2018-05-21T08:40:57.285Z,945.19
2018-05-21T08:41:57.301Z,945.14
2018-05-21T08:42:57.372Z,945.14
2018-05-21T08:43:57.362Z,945.14
2018-05-21T08:44:57.373Z,945.14
2018-05-21T08:45:57.380Z,945.14
2018-05-21T08:46:57.405Z,945.11
2018-05-21T08:47:57.402Z,945.15
2018-05-21T08:48:57.462Z,945.11
2018-05-21T08:49:57.448Z,945.09
2018-05-21T08:50:57.473Z,945.10
2018-05-21T08:51:57.478Z,945.12
2018-05-21T08:52:57.515Z,945.14
2018-05-21T08:53:57.537Z,945.15
2018-05-21T08:54:57.541Z,945.15
2018-05-21T08:55:57.558Z,945.13
2018-05-21T08:56:57.582Z,945.14
2018-05-21T08:57:57.596Z,945.13
2018-05-21T08:58:57.633Z,945.12
2018-05-21T08:59:57.639Z,945.11
2018-05-21T09:00:57.669Z,945.07
2018-05-21T09:01:57.688Z,945.07
2018-05-21T09:02:57.704Z,945.06
2018-05-21T09:03:57.723Z,945.04
2018-05-21T09:04:57.746Z,945.06
2018-05-21T09:05:57.765Z,945.06
2018-05-21T09:06:57.792Z,945.06
2018-05-21T09:07:57.809Z,945.05
2018-05-21T09:08:57.834Z,945.03
2018-05-21T09:09:57.911Z,945.07
2018-05-21T09:10:57.874Z,945.08
2018-05-21T09:11:57.898Z,945.03
2018-05-21T09:12:57.929Z,945.04
2018-05-21T09:13:57.938Z,945.04
2018-05-21T09:14:57.969Z,945.07
2018-05-21T09:15:57.980Z,945.04
2018-05-21T09:16:58.001Z,945.03
2018-05-21T09:17:58.023Z,945.02
2018-05-21T09:18:58.051Z,945.02
2018-05-21T09:19:58.062Z,945.02
2018-05-21T09:20:58.087Z,945.01
2018-05-21T09:21:58.117Z,944.98
2018-05-21T09:22:58.130Z,944.99
2018-05-21T09:23:58.150Z,944.99
2018-05-21T09:24:58.168Z,944.96
2018-05-21T09:25:58.257Z,944.96
2018-05-21T09:26:58.209Z,944.98
2018-05-21T09:27:58.231Z,945.00
2018-05-21T09:28:58.245Z,944.96
2018-05-21T09:29:58.276Z,944.96
2018-05-21T09:30:58.293Z,944.99
2018-05-21T09:31:58.308Z,945.03
2018-05-21T09:32:58.334Z,944.96
2018-05-21T09:33:58.378Z,944.97
2018-05-21T09:34:58.378Z,944.95
2018-05-21T09:35:58.386Z,944.97
2018-05-21T09:36:58.411Z,944.96
2018-05-21T09:37:58.431Z,944.93
2018-05-21T09:38:58.451Z,944.92
2018-05-21T09:39:58.462Z,944.96
2018-05-21T09:40:58.531Z,944.92
2018-05-21T09:41:58.585Z,944.89
2018-05-21T09:42:58.541Z,944.90
2018-05-21T09:43:58.598Z,944.93
2018-05-21T09:44:58.583Z,944.93
2018-05-21T09:45:58.591Z,944.94
2018-05-21T09:46:58.620Z,944.91
2018-05-21T09:47:58.628Z,944.89
2018-05-21T09:48:58.663Z,944.91
2018-05-21T09:49:58.681Z,944.87
2018-05-21T09:50:58.692Z,944.85
2018-05-21T09:51:58.712Z,944.84
2018-05-21T09:52:58.733Z,944.85
2018-05-21T09:53:58.756Z,944.82
2018-05-21T09:54:58.768Z,944.82
2018-05-21T09:55:58.795Z,944.82
2018-05-21T09:56:58.808Z,944.83
2018-05-21T09:57:58.827Z,944.83
2018-05-21T09:58:58.851Z,944.78
2018-05-21T09:59:58.866Z,944.82
2018-05-21T10:00:58.899Z,944.82
2018-05-21T10:01:58.909Z,944.80
2018-05-21T10:02:58.925Z,944.83
2018-05-21T10:03:58.977Z,944.75
2018-05-21T10:04:58.961Z,944.77
2018-05-21T10:05:58.984Z,944.75
2018-05-21T10:06:59.005Z,944.77
2018-05-21T10:07:59.025Z,944.74
2018-05-21T10:08:59.052Z,944.77
2018-05-21T10:09:59.066Z,944.78
2018-05-21T10:10:59.085Z,944.77
2018-05-21T10:11:59.110Z,944.81
2018-05-21T10:12:59.136Z,944.81
2018-05-21T10:13:59.146Z,944.76
2018-05-21T10:14:59.168Z,944.77
2018-05-21T10:15:59.180Z,944.78
2018-05-21T10:16:59.207Z,944.78
2018-05-21T10:17:59.217Z,944.78
2018-05-21T10:18:59.239Z,944.78
2018-05-21T10:19:59.261Z,944.81
2018-05-21T10:20:59.281Z,944.79
2018-05-21T10:21:59.297Z,944.78
2018-05-21T10:22:59.324Z,944.77
2018-05-21T10:23:59.337Z,944.77
2018-05-21T10:24:59.375Z,944.75
2018-05-21T10:25:59.417Z,944.73
2018-05-21T10:26:59.402Z,944.76
2018-05-21T10:27:59.418Z,944.75
2018-05-21T10:28:59.435Z,944.72
2018-05-21T10:29:59.455Z,944.68
2018-05-21T10:30:59.471Z,944.72
2018-05-21T10:31:59.497Z,944.71
2018-05-21T10:32:59.528Z,944.63
2018-05-21T10:33:59.591Z,944.67
2018-05-21T10:34:59.555Z,944.69
2018-05-21T10:35:59.570Z,944.68
2018-05-21T10:36:59.590Z,944.65
2018-05-21T10:37:59.616Z,944.68
2018-05-21T10:38:59.625Z,944.65
2018-05-21T10:39:59.640Z,944.68
2018-05-21T10:40:59.669Z,944.62
2018-05-21T10:41:59.687Z,944.64
2018-05-21T10:42:59.726Z,944.66
2018-05-21T10:43:59.726Z,944.60
2018-05-21T10:44:59.751Z,944.58
2018-05-21T10:45:59.765Z,944.58
2018-05-21T10:46:59.796Z,944.60
2018-05-21T10:47:59.802Z,944.55
2018-05-21T10:48:59.845Z,944.57
2018-05-21T10:49:59.871Z,944.56
2018-05-21T10:50:59.858Z,944.53
2018-05-21T10:51:59.913Z,944.49
2018-05-21T10:52:59.967Z,944.54
2018-05-21T10:53:59.921Z,944.53
2018-05-21T10:54:59.932Z,944.51
2018-05-21T10:55:59.953Z,944.49
2018-05-21T10:56:59.976Z,944.49
2018-05-21T10:58:00.000Z,944.45
2018-05-21T10:59:00.025Z,944.40
2018-05-21T11:00:00.033Z,944.46
2018-05-21T11:01:00.080Z,944.45
2018-05-21T11:02:00.071Z,944.41
2018-05-21T11:03:00.101Z,944.41
2018-05-21T11:04:00.111Z,944.39
2018-05-21T11:05:00.129Z,944.42
2018-05-21T11:06:00.150Z,944.38
2018-05-21T11:07:00.160Z,944.35
2018-05-21T11:08:00.231Z,944.34
2018-05-21T11:09:00.197Z,944.37
2018-05-21T11:10:00.226Z,944.36
2018-05-21T11:11:00.254Z,944.36
2018-05-21T11:12:00.260Z,944.34
2018-05-21T11:13:00.294Z,944.36
2018-05-21T11:14:00.308Z,944.31
2018-05-21T11:15:00.323Z,944.27
2018-05-21T11:16:00.337Z,944.31
2018-05-21T11:17:00.359Z,944.29
2018-05-21T11:18:00.462Z,944.24
2018-05-21T11:19:00.405Z,944.23
2018-05-21T11:20:00.409Z,944.25
2018-05-21T11:21:00.434Z,944.23
2018-05-21T11:22:00.451Z,944.22
2018-05-21T11:23:00.476Z,944.18
2018-05-21T11:24:00.562Z,944.18
2018-05-21T11:25:00.536Z,944.20
2018-05-21T11:26:00.533Z,944.20
2018-05-21T11:27:00.605Z,944.16
2018-05-21T11:28:00.671Z,944.15
2018-05-21T11:29:00.589Z,944.15
2018-05-21T11:30:00.621Z,944.13
2018-05-21T11:31:00.626Z,944.13
2018-05-21T11:32:00.644Z,944.12
2018-05-21T11:33:00.683Z,944.10
2018-05-21T11:34:00.690Z,944.11
2018-05-21T11:35:00.704Z,944.12
2018-05-21T11:36:00.728Z,944.11
2018-05-21T11:37:00.751Z,944.06
2018-05-21T11:38:00.772Z,944.07
2018-05-21T11:39:00.786Z,944.04
2018-05-21T11:40:00.807Z,944.05
2018-05-21T11:41:00.840Z,944.04
2018-05-21T11:42:00.850Z,943.97
2018-05-21T11:43:00.870Z,944.00
2018-05-21T11:44:00.887Z,943.98
2018-05-21T11:45:00.939Z,943.98
2018-05-21T11:46:00.956Z,943.94
2018-05-21T11:47:00.956Z,943.95
2018-05-21T11:48:00.955Z,943.96
2018-05-21T11:49:00.973Z,943.97
2018-05-21T11:50:00.999Z,943.99
2018-05-21T11:51:01.025Z,943.97
2018-05-21T11:52:01.038Z,943.98
2018-05-21T11:53:01.061Z,943.97
2018-05-21T11:54:01.077Z,943.96
2018-05-21T11:55:01.164Z,943.94
2018-05-21T11:56:01.123Z,943.95
2018-05-21T11:57:01.162Z,943.95
2018-05-21T11:58:01.162Z,943.94
2018-05-21T11:59:01.175Z,943.97
2018-05-21T12:00:01.194Z,943.94
2018-05-21T12:01:01.214Z,943.93
2018-05-21T12:02:01.325Z,943.95
2018-05-21T12:03:01.350Z,943.96
2018-05-21T12:04:01.295Z,943.92
2018-05-21T12:05:01.295Z,943.92
2018-05-21T12:06:01.312Z,943.90
2018-05-21T12:07:01.339Z,943.87
2018-05-21T12:08:01.366Z,943.90
2018-05-21T12:09:01.369Z,943.89
2018-05-21T12:10:01.394Z,943.87
2018-05-21T12:11:01.414Z,943.86
2018-05-21T12:12:01.432Z,943.81
2018-05-21T12:13:01.476Z,943.81
2018-05-21T12:14:01.478Z,943.81
2018-05-21T12:15:01.508Z,943.82
2018-05-21T12:16:01.520Z,943.83
2018-05-21T12:17:01.536Z,943.78
2018-05-21T12:18:01.547Z,943.76
2018-05-21T12:19:01.593Z,943.77
2018-05-21T12:20:01.582Z,943.77
2018-05-21T12:21:01.604Z,943.81
2018-05-21T12:22:01.622Z,943.78
2018-05-21T12:23:01.642Z,943.74
2018-05-21T12:24:01.664Z,943.75
2018-05-21T12:25:01.679Z,943.70
2018-05-21T12:26:01.694Z,943.73
2018-05-21T12:27:01.715Z,943.68
2018-05-21T12:28:01.737Z,943.67
2018-05-21T12:29:01.759Z,943.66
2018-05-21T12:30:01.763Z,943.69
2018-05-21T12:31:01.795Z,943.71
2018-05-21T12:32:01.806Z,943.57
2018-05-21T12:33:01.832Z,943.58
2018-05-21T12:34:01.837Z,943.56
2018-05-21T12:35:01.880Z,943.57
2018-05-21T12:36:01.905Z,943.56
2018-05-21T12:37:01.887Z,943.55
2018-05-21T12:38:01.899Z,943.55
2018-05-21T12:39:01.927Z,943.54
2018-05-21T12:40:01.941Z,943.51
2018-05-21T12:41:01.926Z,943.45
2018-05-21T12:42:01.939Z,943.49
2018-05-21T12:43:01.965Z,943.47
2018-05-21T12:44:01.971Z,943.45
2018-05-21T12:45:02.015Z,943.46
2018-05-21T12:46:02.034Z,943.39
2018-05-21T12:47:02.013Z,943.41
2018-05-21T12:48:02.030Z,943.38
2018-05-21T12:49:02.039Z,943.39
2018-05-21T12:50:02.052Z,943.41
2018-05-21T12:51:02.049Z,943.38
2018-05-21T12:52:02.124Z,943.37
2018-05-21T12:53:02.065Z,943.38
2018-05-21T12:54:02.065Z,943.34
2018-05-21T12:55:02.092Z,943.32
2018-05-21T12:56:02.084Z,943.32
2018-05-21T12:57:02.115Z,943.31
2018-05-21T12:58:02.097Z,943.28
2018-05-21T12:59:02.111Z,943.28
2018-05-21T13:00:02.085Z,943.29
2018-05-21T13:01:02.135Z,943.26
2018-05-21T13:02:02.143Z,943.23